aviador You're here:

KQKG Decoded Metar

in
Report Time2018-01-18 12:55:00
UTC Time2018-01-18 13:58:53
Flight Rules vfr VFR
Wind050° at 05 kt
W.Rank050° ranks 18
Current wind is above 050° avg. (2.5)
Visibility9999 m
Phenomena:Vicinity thunderstorm
Clouds:Few 045 Hf
Expected CloudBase > 7,200 ft AGL from Temp-Dew spread
CeilingNone
Temp28°C
Dew Point10°C (32% RH)
Heat Index27.2°C
AAT26.2°C
QNH1008 hPa
Raw Report
METAR KQKG 181255Z AUTO 05005KT 10SM VCTS FEW045 28/10 A2976 RMK AO2
SLP011 WND DATA ESTMD T02810104 $=

Extra information for KQKG:More info

Social comments